sensor_id;sensor_type;location;lat;lon;timestamp;pressure;altitude;pressure_sealevel;temperature;humidity
21658;BME280;10990;48.174;9.782;2023-07-30T00:01:32;93039.75;;;18.21;100.00
21658;BME280;10990;48.174;9.782;2023-07-30T00:03:59;93042.88;;;18.07;100.00
21658;BME280;10990;48.174;9.782;2023-07-30T00:06:26;93019.66;;;18.13;100.00
21658;BME280;10990;48.174;9.782;2023-07-30T00:08:53;93016.72;;;18.14;100.00
21658;BME280;10990;48.174;9.782;2023-07-30T00:11:21;93019.34;;;18.04;100.00
21658;BME280;10990;48.174;9.782;2023-07-30T00:13:48;93004.66;;;18.07;100.00
21658;BME280;10990;48.174;9.782;2023-07-30T00:16:14;92993.91;;;18.02;100.00
21658;BME280;10990;48.174;9.782;2023-07-30T00:18:41;92981.69;;;18.11;100.00
21658;BME280;10990;48.174;9.782;2023-07-30T00:21:08;92982.47;;;18.11;100.00
21658;BME280;10990;48.174;9.782;2023-07-30T00:23:35;92982.19;;;18.03;100.00
21658;BME280;10990;48.174;9.782;2023-07-30T00:26:01;92984.28;;;17.96;100.00
21658;BME280;10990;48.174;9.782;2023-07-30T00:28:29;92972.31;;;18.13;100.00
21658;BME280;10990;48.174;9.782;2023-07-30T00:30:56;92985.69;;;18.13;100.00
21658;BME280;10990;48.174;9.782;2023-07-30T00:33:23;92988.09;;;18.15;100.00
21658;BME280;10990;48.174;9.782;2023-07-30T00:35:50;92995.03;;;18.06;100.00
21658;BME280;10990;48.174;9.782;2023-07-30T00:38:17;93003.56;;;18.03;100.00
21658;BME280;10990;48.174;9.782;2023-07-30T00:40:44;92991.56;;;18.10;100.00
21658;BME280;10990;48.174;9.782;2023-07-30T00:43:11;93013.16;;;17.94;100.00
21658;BME280;10990;48.174;9.782;2023-07-30T00:45:41;92994.97;;;17.96;100.00
21658;BME280;10990;48.174;9.782;2023-07-30T00:48:09;93009.34;;;17.84;100.00
21658;BME280;10990;48.174;9.782;2023-07-30T00:50:36;93031.91;;;17.61;100.00
21658;BME280;10990;48.174;9.782;2023-07-30T00:53:04;93005.97;;;17.62;100.00
21658;BME280;10990;48.174;9.782;2023-07-30T00:55:32;92979.03;;;17.68;100.00
21658;BME280;10990;48.174;9.782;2023-07-30T00:58:01;92975.84;;;17.72;100.00
21658;BME280;10990;48.174;9.782;2023-07-30T01:00:28;92971.47;;;17.55;100.00
21658;BME280;10990;48.174;9.782;2023-07-30T01:02:57;92963.47;;;17.55;100.00
21658;BME280;10990;48.174;9.782;2023-07-30T01:05:24;92955.16;;;17.52;100.00
21658;BME280;10990;48.174;9.782;2023-07-30T01:07:51;92955.97;;;17.52;100.00
21658;BME280;10990;48.174;9.782;2023-07-30T01:10:18;92950.63;;;17.52;100.00
21658;BME280;10990;48.174;9.782;2023-07-30T01:12:46;92931.47;;;17.65;100.00
21658;BME280;10990;48.174;9.782;2023-07-30T01:15:13;92941.31;;;17.65;100.00
21658;BME280;10990;48.174;9.782;2023-07-30T01:17:40;92943.44;;;17.58;100.00
21658;BME280;10990;48.174;9.782;2023-07-30T01:20:10;92942.63;;;17.62;100.00
21658;BME280;10990;48.174;9.782;2023-07-30T01:22:38;92950.38;;;17.59;100.00
21658;BME280;10990;48.174;9.782;2023-07-30T01:25:06;92928.78;;;17.70;100.00
21658;BME280;10990;48.174;9.782;2023-07-30T01:27:37;92945.06;;;17.64;100.00
21658;BME280;10990;48.174;9.782;2023-07-30T01:30:11;92938.41;;;17.66;100.00
21658;BME280;10990;48.174;9.782;2023-07-30T01:32:40;92941.63;;;17.74;100.00
21658;BME280;10990;48.174;9.782;2023-07-30T01:35:08;92940.28;;;17.66;100.00
21658;BME280;10990;48.174;9.782;2023-07-30T01:37:36;92946.31;;;17.51;100.00
21658;BME280;10990;48.174;9.782;2023-07-30T01:40:08;92938.88;;;17.58;100.00
21658;BME280;10990;48.174;9.782;2023-07-30T01:42:36;92933.81;;;17.62;100.00
21658;BME280;10990;48.174;9.782;2023-07-30T01:45:04;92926.34;;;17.64;100.00
21658;BME280;10990;48.174;9.782;2023-07-30T01:47:31;92924.75;;;17.63;100.00
21658;BME280;10990;48.174;9.782;2023-07-30T01:49:57;92927.41;;;17.58;100.00
21658;BME280;10990;48.174;9.782;2023-07-30T01:52:24;92933.47;;;17.48;100.00
21658;BME280;10990;48.174;9.782;2023-07-30T01:54:51;92912.38;;;17.46;100.00
21658;BME280;10990;48.174;9.782;2023-07-30T01:57:19;92903.34;;;17.58;100.00
21658;BME280;10990;48.174;9.782;2023-07-30T01:59:46;92906.81;;;17.58;100.00
21658;BME280;10990;48.174;9.782;2023-07-30T02:02:13;92896.91;;;17.54;100.00
21658;BME280;10990;48.174;9.782;2023-07-30T02:04:40;92896.91;;;17.48;100.00
21658;BME280;10990;48.174;9.782;2023-07-30T02:07:06;92875.28;;;17.55;100.00
21658;BME280;10990;48.174;9.782;2023-07-30T02:09:33;92875.78;;;17.47;100.00
21658;BME280;10990;48.174;9.782;2023-07-30T02:12:00;92862.44;;;17.52;100.00
21658;BME280;10990;48.174;9.782;2023-07-30T02:14:29;92859.50;;;17.54;100.00
21658;BME280;10990;48.174;9.782;2023-07-30T02:17:00;92858.97;;;17.57;100.00
21658;BME280;10990;48.174;9.782;2023-07-30T02:19:27;92865.66;;;17.54;100.00
21658;BME280;10990;48.174;9.782;2023-07-30T02:21:53;92860.31;;;17.54;100.00
21658;BME280;10990;48.174;9.782;2023-07-30T02:24:20;92849.84;;;17.47;100.00
21658;BME280;10990;48.174;9.782;2023-07-30T02:26:47;92844.47;;;17.42;100.00
21658;BME280;10990;48.174;9.782;2023-07-30T02:29:14;92848.50;;;17.45;100.00
21658;BME280;10990;48.174;9.782;2023-07-30T02:31:42;92850.09;;;17.41;100.00
21658;BME280;10990;48.174;9.782;2023-07-30T02:34:08;92855.16;;;17.37;100.00
21658;BME280;10990;48.174;9.782;2023-07-30T02:36:35;92847.94;;;17.33;100.00
21658;BME280;10990;48.174;9.782;2023-07-30T02:39:02;92846.84;;;17.34;100.00
21658;BME280;10990;48.174;9.782;2023-07-30T02:41:29;92861.19;;;17.12;100.00
21658;BME280;10990;48.174;9.782;2023-07-30T02:43:56;92859.31;;;17.13;100.00
21658;BME280;10990;48.174;9.782;2023-07-30T02:46:22;92856.03;;;17.06;100.00
21658;BME280;10990;48.174;9.782;2023-07-30T02:48:50;92856.31;;;17.04;100.00
21658;BME280;10990;48.174;9.782;2023-07-30T02:51:17;92857.84;;;16.90;100.00
21658;BME280;10990;48.174;9.782;2023-07-30T02:53:44;92853.59;;;16.94;100.00
21658;BME280;10990;48.174;9.782;2023-07-30T02:56:11;92860.50;;;16.90;100.00
21658;BME280;10990;48.174;9.782;2023-07-30T02:58:38;92853.25;;;16.85;100.00
21658;BME280;10990;48.174;9.782;2023-07-30T03:01:05;92851.63;;;16.79;100.00
21658;BME280;10990;48.174;9.782;2023-07-30T03:03:33;92840.69;;;16.80;100.00
21658;BME280;10990;48.174;9.782;2023-07-30T03:06:01;92838.31;;;16.89;100.00
21658;BME280;10990;48.174;9.782;2023-07-30T03:08:28;92835.34;;;16.80;100.00
21658;BME280;10990;48.174;9.782;2023-07-30T03:10:57;92836.66;;;16.78;100.00
21658;BME280;10990;48.174;9.782;2023-07-30T03:13:24;92848.88;;;16.74;100.00
21658;BME280;10990;48.174;9.782;2023-07-30T03:15:51;92837.97;;;16.75;100.00
21658;BME280;10990;48.174;9.782;2023-07-30T03:18:18;92834.75;;;16.73;100.00
21658;BME280;10990;48.174;9.782;2023-07-30T03:20:44;92863.09;;;16.47;100.00
21658;BME280;10990;48.174;9.782;2023-07-30T03:23:12;92846.59;;;16.50;100.00
21658;BME280;10990;48.174;9.782;2023-07-30T03:25:39;92824.03;;;16.68;100.00
21658;BME280;10990;48.174;9.782;2023-07-30T03:28:06;92832.84;;;16.69;100.00
21658;BME280;10990;48.174;9.782;2023-07-30T03:30:34;92841.41;;;16.71;100.00
21658;BME280;10990;48.174;9.782;2023-07-30T03:33:00;92875.38;;;16.48;100.00
21658;BME280;10990;48.174;9.782;2023-07-30T03:35:27;92866.94;;;16.62;100.00
21658;BME280;10990;48.174;9.782;2023-07-30T03:37:54;92864.47;;;16.55;100.00
21658;BME280;10990;48.174;9.782;2023-07-30T03:40:23;92860.84;;;16.66;100.00
21658;BME280;10990;48.174;9.782;2023-07-30T03:42:51;92872.19;;;16.51;100.00
21658;BME280;10990;48.174;9.782;2023-07-30T03:45:18;92877.25;;;16.48;100.00
21658;BME280;10990;48.174;9.782;2023-07-30T03:47:45;92868.22;;;16.54;100.00
21658;BME280;10990;48.174;9.782;2023-07-30T03:50:12;92857.25;;;16.50;100.00
21658;BME280;10990;48.174;9.782;2023-07-30T03:52:38;92844.63;;;16.41;100.00
21658;BME280;10990;48.174;9.782;2023-07-30T03:55:06;92829.22;;;16.48;100.00
21658;BME280;10990;48.174;9.782;2023-07-30T03:57:34;92835.31;;;16.43;100.00
21658;BME280;10990;48.174;9.782;2023-07-30T04:00:02;92836.56;;;16.35;100.00
21658;BME280;10990;48.174;9.782;2023-07-30T04:02:39;92818.25;;;16.44;100.00
21658;BME280;10990;48.174;9.782;2023-07-30T04:05:06;92829.09;;;16.32;100.00
21658;BME280;10990;48.174;9.782;2023-07-30T04:07:33;92807.78;;;16.38;100.00
21658;BME280;10990;48.174;9.782;2023-07-30T04:10:00;92808.63;;;16.43;100.00
21658;BME280;10990;48.174;9.782;2023-07-30T04:12:26;92818.22;;;16.39;100.00
21658;BME280;10990;48.174;9.782;2023-07-30T04:14:55;92811.56;;;16.42;100.00
21658;BME280;10990;48.174;9.782;2023-07-30T04:17:21;92811.44;;;16.58;100.00
21658;BME280;10990;48.174;9.782;2023-07-30T04:19:48;92820.16;;;16.49;100.00
21658;BME280;10990;48.174;9.782;2023-07-30T04:22:15;92825.50;;;16.49;100.00
21658;BME280;10990;48.174;9.782;2023-07-30T04:24:41;92838.72;;;16.39;100.00
21658;BME280;10990;48.174;9.782;2023-07-30T04:27:09;92814.09;;;16.64;100.00
21658;BME280;10990;48.174;9.782;2023-07-30T04:29:35;92833.44;;;16.76;100.00
21658;BME280;10990;48.174;9.782;2023-07-30T04:32:04;92831.00;;;16.74;100.00
21658;BME280;10990;48.174;9.782;2023-07-30T04:34:31;92836.00;;;16.66;100.00
21658;BME280;10990;48.174;9.782;2023-07-30T04:36:58;92840.78;;;16.64;100.00
21658;BME280;10990;48.174;9.782;2023-07-30T04:39:26;92822.44;;;16.72;100.00
21658;BME280;10990;48.174;9.782;2023-07-30T04:41:53;92808.44;;;16.87;100.00
21658;BME280;10990;48.174;9.782;2023-07-30T04:44:19;92801.56;;;17.01;100.00
21658;BME280;10990;48.174;9.782;2023-07-30T04:46:46;92803.19;;;17.08;100.00
21658;BME280;10990;48.174;9.782;2023-07-30T04:49:15;92803.00;;;17.24;100.00
21658;BME280;10990;48.174;9.782;2023-07-30T04:51:42;92810.44;;;17.12;100.00
21658;BME280;10990;48.174;9.782;2023-07-30T04:54:09;92823.22;;;17.05;100.00
21658;BME280;10990;48.174;9.782;2023-07-30T04:56:36;92798.72;;;17.18;100.00
21658;BME280;10990;48.174;9.782;2023-07-30T04:59:03;92815.56;;;17.24;100.00
21658;BME280;10990;48.174;9.782;2023-07-30T05:01:30;92825.44;;;17.23;100.00
21658;BME280;10990;48.174;9.782;2023-07-30T05:03:57;92816.41;;;17.35;100.00
21658;BME280;10990;48.174;9.782;2023-07-30T05:06:25;92811.94;;;17.56;100.00
21658;BME280;10990;48.174;9.782;2023-07-30T05:08:52;92812.53;;;17.73;100.00
21658;BME280;10990;48.174;9.782;2023-07-30T05:11:19;92838.72;;;17.76;100.00
21658;BME280;10990;48.174;9.782;2023-07-30T05:13:46;92834.03;;;18.14;100.00
21658;BME280;10990;48.174;9.782;2023-07-30T05:16:13;92851.16;;;18.38;100.00
21658;BME280;10990;48.174;9.782;2023-07-30T05:18:40;92867.78;;;18.56;100.00
21658;BME280;10990;48.174;9.782;2023-07-30T05:21:06;92901.78;;;18.71;100.00
21658;BME280;10990;48.174;9.782;2023-07-30T05:23:34;92936.63;;;18.76;100.00
21658;BME280;10990;48.174;9.782;2023-07-30T05:26:01;92974.94;;;19.02;100.00
21658;BME280;10990;48.174;9.782;2023-07-30T05:28:28;93013.50;;;19.06;100.00
21658;BME280;10990;48.174;9.782;2023-07-30T05:30:55;93035.22;;;19.35;100.00
21658;BME280;10990;48.174;9.782;2023-07-30T05:33:21;93078.91;;;19.36;100.00
21658;BME280;10990;48.174;9.782;2023-07-30T05:35:48;93132.78;;;19.44;100.00
21658;BME280;10990;48.174;9.782;2023-07-30T05:38:15;93166.56;;;19.56;100.00
21658;BME280;10990;48.174;9.782;2023-07-30T05:40:44;93206.59;;;19.83;100.00
21658;BME280;10990;48.174;9.782;2023-07-30T05:43:11;93239.84;;;19.82;100.00
21658;BME280;10990;48.174;9.782;2023-07-30T05:45:37;93282.53;;;19.99;100.00
21658;BME280;10990;48.174;9.782;2023-07-30T05:48:04;93311.00;;;20.25;100.00
21658;BME280;10990;48.174;9.782;2023-07-30T05:50:31;93362.81;;;20.31;100.00
21658;BME280;10990;48.174;9.782;2023-07-30T05:52:58;93405.81;;;20.51;100.00
21658;BME280;10990;48.174;9.782;2023-07-30T05:55:24;93455.53;;;20.69;100.00
21658;BME280;10990;48.174;9.782;2023-07-30T05:57:53;93482.94;;;20.71;100.00
21658;BME280;10990;48.174;9.782;2023-07-30T06:00:20;93516.59;;;21.04;100.00
21658;BME280;10990;48.174;9.782;2023-07-30T06:02:47;93556.69;;;21.42;100.00
21658;BME280;10990;48.174;9.782;2023-07-30T06:05:14;93610.41;;;21.11;100.00
21658;BME280;10990;48.174;9.782;2023-07-30T06:07:41;93643.53;;;21.32;100.00
21658;BME280;10990;48.174;9.782;2023-07-30T06:10:08;93672.94;;;21.75;100.00
21658;BME280;10990;48.174;9.782;2023-07-30T06:12:35;93713.31;;;21.80;100.00
21658;BME280;10990;48.174;9.782;2023-07-30T06:15:06;93733.25;;;22.09;100.00
21658;BME280;10990;48.174;9.782;2023-07-30T06:17:33;93749.13;;;22.98;100.00
21658;BME280;10990;48.174;9.782;2023-07-30T06:19:59;93796.25;;;23.21;100.00
21658;BME280;10990;48.174;9.782;2023-07-30T06:22:27;93860.41;;;23.39;100.00
21658;BME280;10990;48.174;9.782;2023-07-30T06:24:53;93902.75;;;22.77;100.00
21658;BME280;10990;48.174;9.782;2023-07-30T06:27:20;93946.78;;;23.03;100.00
21658;BME280;10990;48.174;9.782;2023-07-30T06:29:47;93977.72;;;23.62;100.00
21658;BME280;10990;48.174;9.782;2023-07-30T06:32:15;94062.50;;;23.87;100.00
21658;BME280;10990;48.174;9.782;2023-07-30T06:34:42;94155.41;;;24.16;100.00
21658;BME280;10990;48.174;9.782;2023-07-30T06:37:08;94257.25;;;24.36;100.00
21658;BME280;10990;48.174;9.782;2023-07-30T06:39:35;94330.19;;;24.26;100.00
21658;BME280;10990;48.174;9.782;2023-07-30T06:42:02;94359.75;;;24.58;100.00
21658;BME280;10990;48.174;9.782;2023-07-30T06:44:29;94442.81;;;25.14;100.00
21658;BME280;10990;48.174;9.782;2023-07-30T06:46:56;94560.00;;;25.15;100.00
21658;BME280;10990;48.174;9.782;2023-07-30T06:49:24;94626.81;;;25.14;100.00
21658;BME280;10990;48.174;9.782;2023-07-30T06:51:52;94714.59;;;24.91;100.00
21658;BME280;10990;48.174;9.782;2023-07-30T06:54:19;94737.34;;;24.90;100.00
21658;BME280;10990;48.174;9.782;2023-07-30T06:56:46;94843.13;;;25.26;100.00
21658;BME280;10990;48.174;9.782;2023-07-30T06:59:13;94959.53;;;25.68;100.00
21658;BME280;10990;48.174;9.782;2023-07-30T07:01:40;95035.53;;;25.89;100.00
21658;BME280;10990;48.174;9.782;2023-07-30T07:04:06;95104.22;;;26.10;100.00
21658;BME280;10990;48.174;9.782;2023-07-30T07:06:34;95197.16;;;26.43;100.00
21658;BME280;10990;48.174;9.782;2023-07-30T07:09:01;95249.50;;;25.57;100.00
21658;BME280;10990;48.174;9.782;2023-07-30T07:11:28;95296.88;;;26.03;100.00
21658;BME280;10990;48.174;9.782;2023-07-30T07:13:55;95343.41;;;25.95;100.00
21658;BME280;10990;48.174;9.782;2023-07-30T07:16:22;95393.06;;;27.09;100.00
21658;BME280;10990;48.174;9.782;2023-07-30T07:18:48;95440.97;;;26.93;100.00
21658;BME280;10990;48.174;9.782;2023-07-30T07:21:15;95465.84;;;27.44;100.00
21658;BME280;10990;48.174;9.782;2023-07-30T07:23:43;95470.81;;;26.66;100.00
21658;BME280;10990;48.174;9.782;2023-07-30T07:26:10;95461.44;;;27.06;100.00
21658;BME280;10990;48.174;9.782;2023-07-30T07:28:37;95516.63;;;26.63;100.00
21658;BME280;10990;48.174;9.782;2023-07-30T07:31:03;95497.03;;;26.82;100.00
21658;BME280;10990;48.174;9.782;2023-07-30T07:33:30;95535.19;;;26.98;100.00
21658;BME280;10990;48.174;9.782;2023-07-30T07:36:04;95528.63;;;27.80;100.00
21658;BME280;10990;48.174;9.782;2023-07-30T07:38:31;95552.38;;;28.43;100.00
21658;BME280;10990;48.174;9.782;2023-07-30T07:41:00;95565.22;;;27.72;100.00
21658;BME280;10990;48.174;9.782;2023-07-30T07:43:27;95579.19;;;26.34;100.00
21658;BME280;10990;48.174;9.782;2023-07-30T07:45:54;95545.22;;;26.09;100.00
21658;BME280;10990;48.174;9.782;2023-07-30T07:48:20;95506.44;;;25.36;100.00
21658;BME280;10990;48.174;9.782;2023-07-30T07:50:47;95511.44;;;25.61;100.00
21658;BME280;10990;48.174;9.782;2023-07-30T07:53:14;95499.09;;;25.70;100.00
21658;BME280;10990;48.174;9.782;2023-07-30T07:55:41;95523.91;;;27.11;100.00
21658;BME280;10990;48.174;9.782;2023-07-30T07:58:09;95578.25;;;28.03;100.00
21658;BME280;10990;48.174;9.782;2023-07-30T08:00:35;95608.72;;;28.42;100.00
21658;BME280;10990;48.174;9.782;2023-07-30T08:03:03;95623.63;;;28.39;100.00
21658;BME280;10990;48.174;9.782;2023-07-30T08:05:29;95625.78;;;28.37;100.00
21658;BME280;10990;48.174;9.782;2023-07-30T08:07:56;95613.63;;;29.08;100.00
21658;BME280;10990;48.174;9.782;2023-07-30T08:10:22;95630.84;;;29.24;100.00
21658;BME280;10990;48.174;9.782;2023-07-30T08:12:49;95636.34;;;29.49;100.00
21658;BME280;10990;48.174;9.782;2023-07-30T08:15:17;95652.41;;;29.41;100.00
21658;BME280;10990;48.174;9.782;2023-07-30T08:17:44;95656.41;;;28.60;100.00
21658;BME280;10990;48.174;9.782;2023-07-30T08:20:11;95654.38;;;27.76;100.00
21658;BME280;10990;48.174;9.782;2023-07-30T08:22:38;95642.94;;;28.80;100.00
21658;BME280;10990;48.174;9.782;2023-07-30T08:25:05;95654.50;;;29.13;100.00
21658;BME280;10990;48.174;9.782;2023-07-30T08:27:32;95662.03;;;28.96;100.00
21658;BME280;10990;48.174;9.782;2023-07-30T08:29:59;95662.56;;;28.88;100.00
21658;BME280;10990;48.174;9.782;2023-07-30T08:32:27;95652.63;;;29.19;100.00
21658;BME280;10990;48.174;9.782;2023-07-30T08:34:53;95665.09;;;27.33;100.00
21658;BME280;10990;48.174;9.782;2023-07-30T08:37:20;95669.81;;;27.97;100.00
21658;BME280;10990;48.174;9.782;2023-07-30T08:39:46;95663.97;;;28.10;100.00
21658;BME280;10990;48.174;9.782;2023-07-30T08:42:13;95668.03;;;28.08;100.00
21658;BME280;10990;48.174;9.782;2023-07-30T08:44:40;95647.78;;;29.36;100.00
21658;BME280;10990;48.174;9.782;2023-07-30T08:47:06;95654.34;;;29.40;100.00
21658;BME280;10990;48.174;9.782;2023-07-30T08:49:35;95655.19;;;29.61;100.00
21658;BME280;10990;48.174;9.782;2023-07-30T08:52:03;95668.91;;;27.86;100.00
21658;BME280;10990;48.174;9.782;2023-07-30T08:54:31;95664.66;;;27.68;100.00
21658;BME280;10990;48.174;9.782;2023-07-30T08:56:58;95660.97;;;28.44;100.00
21658;BME280;10990;48.174;9.782;2023-07-30T08:59:27;95661.16;;;28.00;100.00
21658;BME280;10990;48.174;9.782;2023-07-30T09:01:55;95658.22;;;28.97;100.00
21658;BME280;10990;48.174;9.782;2023-07-30T09:04:24;95650.97;;;29.13;100.00
21658;BME280;10990;48.174;9.782;2023-07-30T09:06:52;95657.00;;;28.67;100.00
21658;BME280;10990;48.174;9.782;2023-07-30T09:09:19;95670.22;;;28.11;100.00
21658;BME280;10990;48.174;9.782;2023-07-30T09:11:50;95668.66;;;27.61;100.00
21658;BME280;10990;48.174;9.782;2023-07-30T09:14:19;95672.38;;;26.83;100.00
21658;BME280;10990;48.174;9.782;2023-07-30T09:16:46;95671.72;;;26.21;100.00
21658;BME280;10990;48.174;9.782;2023-07-30T09:19:16;95664.13;;;26.39;100.00
21658;BME280;10990;48.174;9.782;2023-07-30T09:21:43;95665.75;;;27.18;100.00
21658;BME280;10990;48.174;9.782;2023-07-30T09:24:11;95671.81;;;28.07;100.00
21658;BME280;10990;48.174;9.782;2023-07-30T09:26:45;95676.19;;;28.45;100.00
21658;BME280;10990;48.174;9.782;2023-07-30T09:29:12;95678.69;;;27.82;100.00
21658;BME280;10990;48.174;9.782;2023-07-30T09:31:50;95670.78;;;28.13;100.00
21658;BME280;10990;48.174;9.782;2023-07-30T09:34:19;95674.81;;;27.51;100.00
21658;BME280;10990;48.174;9.782;2023-07-30T09:36:47;95692.38;;;26.99;100.00
21658;BME280;10990;48.174;9.782;2023-07-30T09:39:16;95682.44;;;27.27;100.00
21658;BME280;10990;48.174;9.782;2023-07-30T09:41:44;95691.75;;;27.85;100.00
21658;BME280;10990;48.174;9.782;2023-07-30T09:44:11;95666.28;;;28.34;100.00
21658;BME280;10990;48.174;9.782;2023-07-30T09:46:42;95664.00;;;28.53;100.00
21658;BME280;10990;48.174;9.782;2023-07-30T09:49:09;95669.13;;;28.44;100.00
21658;BME280;10990;48.174;9.782;2023-07-30T09:51:36;95659.41;;;29.06;100.00
21658;BME280;10990;48.174;9.782;2023-07-30T09:54:04;95664.72;;;28.86;100.00
21658;BME280;10990;48.174;9.782;2023-07-30T09:56:35;95662.91;;;28.54;100.00
21658;BME280;10990;48.174;9.782;2023-07-30T09:59:02;95664.97;;;28.04;100.00
21658;BME280;10990;48.174;9.782;2023-07-30T10:01:29;95668.28;;;27.25;100.00
21658;BME280;10990;48.174;9.782;2023-07-30T10:03:57;95679.59;;;27.17;100.00
21658;BME280;10990;48.174;9.782;2023-07-30T10:06:25;95682.66;;;26.81;100.00
21658;BME280;10990;48.174;9.782;2023-07-30T10:08:56;95692.78;;;25.68;100.00
21658;BME280;10990;48.174;9.782;2023-07-30T10:11:25;95641.13;;;25.00;100.00
21658;BME280;10990;48.174;9.782;2023-07-30T10:13:54;95543.59;;;23.44;100.00
21658;BME280;10990;48.174;9.782;2023-07-30T10:16:25;95455.38;;;25.11;100.00
21658;BME280;10990;48.174;9.782;2023-07-30T10:18:56;95495.63;;;24.91;100.00
21658;BME280;10990;48.174;9.782;2023-07-30T10:21:24;95465.53;;;26.54;100.00
21658;BME280;10990;48.174;9.782;2023-07-30T10:23:59;95520.75;;;26.92;100.00
21658;BME280;10990;48.174;9.782;2023-07-30T10:26:27;95559.47;;;26.60;100.00
21658;BME280;10990;48.174;9.782;2023-07-30T10:29:14;95585.09;;;25.92;100.00
21658;BME280;10990;48.174;9.782;2023-07-30T10:31:41;95578.56;;;25.76;100.00
21658;BME280;10990;48.174;9.782;2023-07-30T10:34:09;95602.06;;;25.70;100.00
21658;BME280;10990;48.174;9.782;2023-07-30T10:36:41;95607.91;;;25.62;100.00
21658;BME280;10990;48.174;9.782;2023-07-30T10:39:13;95633.31;;;25.44;100.00
21658;BME280;10990;48.174;9.782;2023-07-30T10:41:40;95644.34;;;26.39;100.00
21658;BME280;10990;48.174;9.782;2023-07-30T10:44:07;95640.78;;;26.77;100.00
21658;BME280;10990;48.174;9.782;2023-07-30T10:46:45;95659.69;;;26.89;100.00
21658;BME280;10990;48.174;9.782;2023-07-30T10:49:11;95662.22;;;26.96;100.00
21658;BME280;10990;48.174;9.782;2023-07-30T10:51:38;95668.59;;;26.29;100.00
21658;BME280;10990;48.174;9.782;2023-07-30T10:54:06;95665.44;;;26.93;100.00
21658;BME280;10990;48.174;9.782;2023-07-30T10:56:34;95661.81;;;27.31;100.00
21658;BME280;10990;48.174;9.782;2023-07-30T10:59:03;95659.13;;;27.85;100.00
21658;BME280;10990;48.174;9.782;2023-07-30T11:01:30;95673.47;;;27.54;100.00
21658;BME280;10990;48.174;9.782;2023-07-30T11:03:58;95660.75;;;27.32;100.00
21658;BME280;10990;48.174;9.782;2023-07-30T11:06:26;95677.09;;;27.15;100.00
21658;BME280;10990;48.174;9.782;2023-07-30T11:08:53;95673.25;;;26.67;100.00
21658;BME280;10990;48.174;9.782;2023-07-30T11:11:19;95687.16;;;26.37;100.00
21658;BME280;10990;48.174;9.782;2023-07-30T11:13:47;95707.31;;;25.79;100.00
21658;BME280;10990;48.174;9.782;2023-07-30T11:16:15;95728.88;;;25.16;100.00
21658;BME280;10990;48.174;9.782;2023-07-30T11:18:43;95744.13;;;24.58;100.00
21658;BME280;10990;48.174;9.782;2023-07-30T11:21:14;95739.13;;;24.20;100.00
21658;BME280;10990;48.174;9.782;2023-07-30T11:23:44;95737.72;;;24.29;100.00
21658;BME280;10990;48.174;9.782;2023-07-30T11:26:13;95741.25;;;23.76;100.00
21658;BME280;10990;48.174;9.782;2023-07-30T11:28:40;95725.44;;;23.61;100.00
21658;BME280;10990;48.174;9.782;2023-07-30T11:31:08;95744.44;;;23.85;100.00
21658;BME280;10990;48.174;9.782;2023-07-30T11:33:37;95749.50;;;23.81;100.00
21658;BME280;10990;48.174;9.782;2023-07-30T11:36:05;95743.84;;;24.25;100.00
21658;BME280;10990;48.174;9.782;2023-07-30T11:38:35;95754.75;;;24.18;100.00
21658;BME280;10990;48.174;9.782;2023-07-30T11:41:02;95747.41;;;24.60;100.00
21658;BME280;10990;48.174;9.782;2023-07-30T11:43:29;95746.72;;;24.53;100.00
21658;BME280;10990;48.174;9.782;2023-07-30T11:46:09;95739.59;;;24.29;100.00
21658;BME280;10990;48.174;9.782;2023-07-30T11:48:37;95725.69;;;25.08;100.00
21658;BME280;10990;48.174;9.782;2023-07-30T11:51:04;95731.88;;;24.79;100.00
21658;BME280;10990;48.174;9.782;2023-07-30T11:53:45;95721.69;;;25.10;100.00
21658;BME280;10990;48.174;9.782;2023-07-30T11:56:20;95734.53;;;25.03;100.00
21658;BME280;10990;48.174;9.782;2023-07-30T11:58:48;95730.44;;;25.00;100.00
21658;BME280;10990;48.174;9.782;2023-07-30T12:01:16;95730.44;;;24.89;100.00
21658;BME280;10990;48.174;9.782;2023-07-30T12:03:43;95750.22;;;24.66;100.00
21658;BME280;10990;48.174;9.782;2023-07-30T12:06:10;95743.03;;;24.95;100.00
21658;BME280;10990;48.174;9.782;2023-07-30T12:08:37;95753.34;;;25.10;100.00
21658;BME280;10990;48.174;9.782;2023-07-30T12:11:07;95766.78;;;25.04;100.00
21658;BME280;10990;48.174;9.782;2023-07-30T12:13:42;95756.69;;;24.76;100.00
21658;BME280;10990;48.174;9.782;2023-07-30T12:16:09;95766.56;;;24.71;100.00
21658;BME280;10990;48.174;9.782;2023-07-30T12:18:37;95749.66;;;24.75;100.00
21658;BME280;10990;48.174;9.782;2023-07-30T12:21:04;95753.59;;;25.08;100.00
21658;BME280;10990;48.174;9.782;2023-07-30T12:23:32;95752.28;;;25.34;100.00
21658;BME280;10990;48.174;9.782;2023-07-30T12:25:59;95754.66;;;25.19;100.00
21658;BME280;10990;48.174;9.782;2023-07-30T12:28:27;95754.56;;;24.90;100.00
21658;BME280;10990;48.174;9.782;2023-07-30T12:30:53;95757.63;;;25.17;100.00
21658;BME280;10990;48.174;9.782;2023-07-30T12:33:20;95744.09;;;24.82;100.00
21658;BME280;10990;48.174;9.782;2023-07-30T12:35:46;95757.72;;;24.28;100.00
21658;BME280;10990;48.174;9.782;2023-07-30T12:38:15;95759.22;;;24.12;100.00
21658;BME280;10990;48.174;9.782;2023-07-30T12:40:42;95755.03;;;24.99;100.00
21658;BME280;10990;48.174;9.782;2023-07-30T12:43:08;95760.78;;;25.02;100.00
21658;BME280;10990;48.174;9.782;2023-07-30T12:45:36;95760.56;;;24.80;100.00
21658;BME280;10990;48.174;9.782;2023-07-30T12:48:04;95763.63;;;24.60;100.00
21658;BME280;10990;48.174;9.782;2023-07-30T12:50:32;95759.75;;;24.68;100.00
21658;BME280;10990;48.174;9.782;2023-07-30T12:52:59;95765.63;;;24.89;100.00